sensor_id;sensor_type;location;lat;lon;timestamp;pressure;altitude;pressure_sealevel;temperature;humidity
76660;BME280;65579;45.534;6.212;2023-07-29T00:00:59;98007.85;;;24.97;42.58
76660;BME280;65579;45.534;6.212;2023-07-29T00:03:25;98005.53;;;25.51;42.23
76660;BME280;65579;45.534;6.212;2023-07-29T00:05:50;98004.80;;;25.74;41.89
76660;BME280;65579;45.534;6.212;2023-07-29T00:08:16;98004.94;;;25.36;42.53
76660;BME280;65579;45.534;6.212;2023-07-29T00:10:41;98007.49;;;25.57;42.19
76660;BME280;65579;45.534;6.212;2023-07-29T00:13:07;98013.76;;;25.51;42.38
76660;BME280;65579;45.534;6.212;2023-07-29T00:15:33;98013.39;;;25.35;41.97
76660;BME280;65579;45.534;6.212;2023-07-29T00:17:59;98013.82;;;25.01;43.62
76660;BME280;65579;45.534;6.212;2023-07-29T00:20:25;98011.79;;;25.30;42.34
76660;BME280;65579;45.534;6.212;2023-07-29T00:22:50;98012.51;;;25.39;42.75
76660;BME280;65579;45.534;6.212;2023-07-29T00:25:16;98017.37;;;25.56;42.33
76660;BME280;65579;45.534;6.212;2023-07-29T00:27:42;98022.30;;;25.68;42.08
76660;BME280;65579;45.534;6.212;2023-07-29T00:30:08;98027.45;;;25.08;43.08
76660;BME280;65579;45.534;6.212;2023-07-29T00:32:33;98024.01;;;23.18;46.57
76660;BME280;65579;45.534;6.212;2023-07-29T00:34:59;98025.10;;;22.95;47.02
76660;BME280;65579;45.534;6.212;2023-07-29T00:37:25;98028.95;;;23.90;45.87
76660;BME280;65579;45.534;6.212;2023-07-29T00:39:50;98031.06;;;24.43;44.57
76660;BME280;65579;45.534;6.212;2023-07-29T00:42:15;98032.85;;;24.65;44.01
76660;BME280;65579;45.534;6.212;2023-07-29T00:44:41;98031.35;;;24.67;43.52
76660;BME280;65579;45.534;6.212;2023-07-29T00:47:07;98026.08;;;24.56;44.56
76660;BME280;65579;45.534;6.212;2023-07-29T00:49:32;98019.03;;;24.49;45.23
76660;BME280;65579;45.534;6.212;2023-07-29T00:51:58;98014.05;;;24.95;43.94
76660;BME280;65579;45.534;6.212;2023-07-29T00:54:24;98009.47;;;25.10;43.63
76660;BME280;65579;45.534;6.212;2023-07-29T00:56:49;98010.98;;;25.33;43.14
76660;BME280;65579;45.534;6.212;2023-07-29T00:59:15;98024.88;;;24.98;44.10
76660;BME280;65579;45.534;6.212;2023-07-29T01:01:41;98033.60;;;23.95;45.40
76660;BME280;65579;45.534;6.212;2023-07-29T01:04:07;98029.80;;;23.54;46.97
76660;BME280;65579;45.534;6.212;2023-07-29T01:06:41;98027.94;;;24.07;44.98
76660;BME280;65579;45.534;6.212;2023-07-29T01:09:02;98032.68;;;24.62;43.83
76660;BME280;65579;45.534;6.212;2023-07-29T01:11:35;98038.61;;;24.93;43.32
76660;BME280;65579;45.534;6.212;2023-07-29T01:13:54;98039.00;;;24.96;43.32
76660;BME280;65579;45.534;6.212;2023-07-29T01:16:21;98037.22;;;24.07;44.60
76660;BME280;65579;45.534;6.212;2023-07-29T01:18:42;98036.68;;;23.79;45.81
76660;BME280;65579;45.534;6.212;2023-07-29T01:21:09;98038.18;;;24.28;44.17
76660;BME280;65579;45.534;6.212;2023-07-29T01:23:34;98032.63;;;24.92;43.65
76660;BME280;65579;45.534;6.212;2023-07-29T01:25:59;98037.70;;;24.30;44.54
76660;BME280;65579;45.534;6.212;2023-07-29T01:28:25;98040.55;;;21.56;50.56
76660;BME280;65579;45.534;6.212;2023-07-29T01:30:57;98031.80;;;23.69;45.99
76660;BME280;65579;45.534;6.212;2023-07-29T01:33:19;98039.95;;;24.20;44.52
76660;BME280;65579;45.534;6.212;2023-07-29T01:35:45;98041.77;;;24.30;45.98
76660;BME280;65579;45.534;6.212;2023-07-29T01:38:13;98049.91;;;22.55;48.41
76660;BME280;65579;45.534;6.212;2023-07-29T01:40:33;98043.83;;;23.84;46.01
76660;BME280;65579;45.534;6.212;2023-07-29T01:42:59;98041.01;;;24.19;44.50
76660;BME280;65579;45.534;6.212;2023-07-29T01:45:25;98044.26;;;24.47;43.51
76660;BME280;65579;45.534;6.212;2023-07-29T01:47:50;98043.47;;;24.62;42.80
76660;BME280;65579;45.534;6.212;2023-07-29T01:50:15;98041.69;;;24.85;42.19
76660;BME280;65579;45.534;6.212;2023-07-29T01:52:41;98043.73;;;24.90;42.16
76660;BME280;65579;45.534;6.212;2023-07-29T01:55:06;98047.30;;;24.82;42.77
76660;BME280;65579;45.534;6.212;2023-07-29T01:57:32;98049.29;;;24.48;43.61
76660;BME280;65579;45.534;6.212;2023-07-29T01:59:57;98049.22;;;24.59;43.85
76660;BME280;65579;45.534;6.212;2023-07-29T02:02:23;98044.27;;;24.69;43.13
76660;BME280;65579;45.534;6.212;2023-07-29T02:04:48;98040.34;;;23.98;44.40
76660;BME280;65579;45.534;6.212;2023-07-29T02:07:14;98039.45;;;24.41;43.22
76660;BME280;65579;45.534;6.212;2023-07-29T02:09:40;98041.42;;;24.44;42.53
76660;BME280;65579;45.534;6.212;2023-07-29T02:12:06;98043.34;;;22.12;47.70
76660;BME280;65579;45.534;6.212;2023-07-29T02:14:31;98048.22;;;23.29;45.43
76660;BME280;65579;45.534;6.212;2023-07-29T02:16:57;98052.35;;;23.67;44.23
76660;BME280;65579;45.534;6.212;2023-07-29T02:19:23;98057.40;;;24.40;43.89
76660;BME280;65579;45.534;6.212;2023-07-29T02:21:49;98064.26;;;24.07;43.00
76660;BME280;65579;45.534;6.212;2023-07-29T02:24:15;98063.66;;;24.12;43.61
76660;BME280;65579;45.534;6.212;2023-07-29T02:26:41;98065.89;;;22.54;47.12
76660;BME280;65579;45.534;6.212;2023-07-29T02:29:06;98062.46;;;23.72;45.20
76660;BME280;65579;45.534;6.212;2023-07-29T02:31:31;98060.89;;;23.60;45.16
76660;BME280;65579;45.534;6.212;2023-07-29T02:33:57;98056.03;;;24.15;43.97
76660;BME280;65579;45.534;6.212;2023-07-29T02:36:23;98051.95;;;24.26;43.03
76660;BME280;65579;45.534;6.212;2023-07-29T02:38:48;98052.71;;;24.09;43.58
76660;BME280;65579;45.534;6.212;2023-07-29T02:41:14;98057.18;;;24.29;43.15
76660;BME280;65579;45.534;6.212;2023-07-29T02:43:41;98060.00;;;23.99;43.12
76660;BME280;65579;45.534;6.212;2023-07-29T02:46:06;98067.30;;;23.99;43.45
76660;BME280;65579;45.534;6.212;2023-07-29T02:48:32;98068.10;;;24.12;43.51
76660;BME280;65579;45.534;6.212;2023-07-29T02:50:57;98068.15;;;24.48;43.39
76660;BME280;65579;45.534;6.212;2023-07-29T02:53:23;98067.14;;;24.24;43.17
76660;BME280;65579;45.534;6.212;2023-07-29T02:55:48;98068.43;;;24.23;43.06
76660;BME280;65579;45.534;6.212;2023-07-29T02:58:14;98068.85;;;24.49;42.94
76660;BME280;65579;45.534;6.212;2023-07-29T03:00:40;98070.84;;;24.27;42.89
76660;BME280;65579;45.534;6.212;2023-07-29T03:03:05;98068.18;;;24.23;43.16
76660;BME280;65579;45.534;6.212;2023-07-29T03:05:31;98069.34;;;24.26;42.67
76660;BME280;65579;45.534;6.212;2023-07-29T03:07:57;98071.30;;;24.14;43.13
76660;BME280;65579;45.534;6.212;2023-07-29T03:10:22;98071.52;;;24.10;43.00
76660;BME280;65579;45.534;6.212;2023-07-29T03:12:48;98071.88;;;24.02;43.04
76660;BME280;65579;45.534;6.212;2023-07-29T03:15:14;98075.67;;;23.97;43.34
76660;BME280;65579;45.534;6.212;2023-07-29T03:17:39;98078.67;;;23.40;44.24
76660;BME280;65579;45.534;6.212;2023-07-29T03:20:06;98088.76;;;21.41;49.58
76660;BME280;65579;45.534;6.212;2023-07-29T03:22:31;98092.54;;;22.40;47.35
76660;BME280;65579;45.534;6.212;2023-07-29T03:24:57;98088.06;;;23.11;45.77
76660;BME280;65579;45.534;6.212;2023-07-29T03:27:23;98085.16;;;23.00;45.36
76660;BME280;65579;45.534;6.212;2023-07-29T03:29:48;98074.18;;;23.70;44.14
76660;BME280;65579;45.534;6.212;2023-07-29T03:32:14;98064.59;;;23.90;43.81
76660;BME280;65579;45.534;6.212;2023-07-29T03:34:40;98062.30;;;24.00;43.52
76660;BME280;65579;45.534;6.212;2023-07-29T03:37:06;98059.71;;;23.93;43.37
76660;BME280;65579;45.534;6.212;2023-07-29T03:39:31;98055.66;;;23.75;43.13
76660;BME280;65579;45.534;6.212;2023-07-29T03:41:58;98056.13;;;22.88;45.34
76660;BME280;65579;45.534;6.212;2023-07-29T03:44:23;98060.80;;;23.09;44.21
76660;BME280;65579;45.534;6.212;2023-07-29T03:46:49;98063.39;;;23.33;43.66
76660;BME280;65579;45.534;6.212;2023-07-29T03:49:15;98064.68;;;23.40;43.68
76660;BME280;65579;45.534;6.212;2023-07-29T03:51:40;98070.00;;;23.44;43.38
76660;BME280;65579;45.534;6.212;2023-07-29T03:54:06;98078.87;;;23.24;43.85
76660;BME280;65579;45.534;6.212;2023-07-29T03:56:31;98083.58;;;23.07;44.34
76660;BME280;65579;45.534;6.212;2023-07-29T03:59:03;98084.34;;;23.58;44.15
76660;BME280;65579;45.534;6.212;2023-07-29T04:01:23;98084.01;;;22.58;45.16
76660;BME280;65579;45.534;6.212;2023-07-29T04:03:49;98081.18;;;22.96;44.38
76660;BME280;65579;45.534;6.212;2023-07-29T04:06:15;98073.02;;;23.10;44.80
76660;BME280;65579;45.534;6.212;2023-07-29T04:08:40;98067.54;;;23.11;44.56
76660;BME280;65579;45.534;6.212;2023-07-29T04:11:06;98066.98;;;23.09;43.86
76660;BME280;65579;45.534;6.212;2023-07-29T04:13:32;98068.88;;;23.09;44.83
76660;BME280;65579;45.534;6.212;2023-07-29T04:15:58;98069.90;;;22.94;44.15
76660;BME280;65579;45.534;6.212;2023-07-29T04:18:24;98073.27;;;22.85;44.43
76660;BME280;65579;45.534;6.212;2023-07-29T04:20:49;98077.90;;;23.01;43.85
76660;BME280;65579;45.534;6.212;2023-07-29T04:23:15;98081.16;;;23.09;44.00
76660;BME280;65579;45.534;6.212;2023-07-29T04:25:41;98082.05;;;23.20;43.79
76660;BME280;65579;45.534;6.212;2023-07-29T04:28:06;98081.48;;;23.25;43.37
76660;BME280;65579;45.534;6.212;2023-07-29T04:30:32;98079.59;;;22.53;45.52
76660;BME280;65579;45.534;6.212;2023-07-29T04:32:58;98077.86;;;23.27;44.67
76660;BME280;65579;45.534;6.212;2023-07-29T04:35:23;98076.15;;;23.22;43.86
76660;BME280;65579;45.534;6.212;2023-07-29T04:37:49;98068.27;;;23.39;43.76
76660;BME280;65579;45.534;6.212;2023-07-29T04:40:15;98074.67;;;23.55;43.90
76660;BME280;65579;45.534;6.212;2023-07-29T04:42:41;98077.08;;;23.05;44.06
76660;BME280;65579;45.534;6.212;2023-07-29T04:45:07;98079.46;;;22.89;44.01
76660;BME280;65579;45.534;6.212;2023-07-29T04:47:32;98075.85;;;22.29;44.86
76660;BME280;65579;45.534;6.212;2023-07-29T04:49:59;98075.39;;;22.34;45.73
76660;BME280;65579;45.534;6.212;2023-07-29T04:52:24;98068.79;;;22.84;44.96
76660;BME280;65579;45.534;6.212;2023-07-29T04:54:50;98075.86;;;22.29;45.15
76660;BME280;65579;45.534;6.212;2023-07-29T04:57:15;98075.98;;;22.12;45.79
76660;BME280;65579;45.534;6.212;2023-07-29T04:59:41;98079.29;;;22.67;44.97
76660;BME280;65579;45.534;6.212;2023-07-29T05:02:06;98083.71;;;21.81;46.99
76660;BME280;65579;45.534;6.212;2023-07-29T05:04:32;98082.82;;;22.27;46.23
76660;BME280;65579;45.534;6.212;2023-07-29T05:06:58;98084.29;;;22.82;45.04
76660;BME280;65579;45.534;6.212;2023-07-29T05:09:23;98083.68;;;23.07;44.56
76660;BME280;65579;45.534;6.212;2023-07-29T05:11:49;98086.53;;;23.07;44.76
76660;BME280;65579;45.534;6.212;2023-07-29T05:14:15;98089.97;;;22.82;45.28
76660;BME280;65579;45.534;6.212;2023-07-29T05:16:39;98093.84;;;22.42;45.78
76660;BME280;65579;45.534;6.212;2023-07-29T05:19:05;98091.43;;;22.87;44.62
76660;BME280;65579;45.534;6.212;2023-07-29T05:21:31;98090.86;;;21.58;47.65
76660;BME280;65579;45.534;6.212;2023-07-29T05:23:57;98087.00;;;21.83;46.60
76660;BME280;65579;45.534;6.212;2023-07-29T05:26:23;98085.10;;;21.92;47.32
76660;BME280;65579;45.534;6.212;2023-07-29T05:28:48;98086.48;;;21.92;47.53
76660;BME280;65579;45.534;6.212;2023-07-29T05:31:14;98079.88;;;22.53;45.38
76660;BME280;65579;45.534;6.212;2023-07-29T05:33:40;98074.16;;;23.26;44.56
76660;BME280;65579;45.534;6.212;2023-07-29T05:36:06;98065.31;;;23.69;43.77
76660;BME280;65579;45.534;6.212;2023-07-29T05:38:31;98061.15;;;23.87;43.58
76660;BME280;65579;45.534;6.212;2023-07-29T05:40:57;98061.34;;;23.77;43.24
76660;BME280;65579;45.534;6.212;2023-07-29T05:43:24;98070.13;;;23.87;43.24
76660;BME280;65579;45.534;6.212;2023-07-29T05:45:49;98076.13;;;22.39;46.31
76660;BME280;65579;45.534;6.212;2023-07-29T05:48:14;98077.53;;;22.34;47.37
76660;BME280;65579;45.534;6.212;2023-07-29T05:50:40;98072.80;;;22.76;47.10
76660;BME280;65579;45.534;6.212;2023-07-29T05:53:06;98066.25;;;22.34;48.04
76660;BME280;65579;45.534;6.212;2023-07-29T05:55:32;98054.08;;;23.39;45.53
76660;BME280;65579;45.534;6.212;2023-07-29T05:57:58;98046.13;;;23.66;44.37
76660;BME280;65579;45.534;6.212;2023-07-29T06:00:23;98039.55;;;22.95;45.87
76660;BME280;65579;45.534;6.212;2023-07-29T06:02:49;98047.83;;;23.48;45.90
76660;BME280;65579;45.534;6.212;2023-07-29T06:05:15;98053.53;;;23.31;45.20
76660;BME280;65579;45.534;6.212;2023-07-29T06:07:41;98057.61;;;23.86;44.29
76660;BME280;65579;45.534;6.212;2023-07-29T06:10:07;98058.60;;;23.89;44.34
76660;BME280;65579;45.534;6.212;2023-07-29T06:12:32;98059.06;;;24.05;43.87
76660;BME280;65579;45.534;6.212;2023-07-29T06:14:58;98062.42;;;24.27;44.24
76660;BME280;65579;45.534;6.212;2023-07-29T06:17:24;98066.44;;;23.76;44.55
76660;BME280;65579;45.534;6.212;2023-07-29T06:19:50;98066.77;;;23.75;46.14
76660;BME280;65579;45.534;6.212;2023-07-29T06:22:15;98065.61;;;22.70;47.68
76660;BME280;65579;45.534;6.212;2023-07-29T06:24:41;98065.83;;;22.02;49.51
76660;BME280;65579;45.534;6.212;2023-07-29T06:27:06;98057.23;;;23.17;46.79
76660;BME280;65579;45.534;6.212;2023-07-29T06:29:32;98050.46;;;20.04;52.69
76660;BME280;65579;45.534;6.212;2023-07-29T06:31:58;98050.74;;;18.98;55.69
76660;BME280;65579;45.534;6.212;2023-07-29T06:34:24;98054.08;;;19.02;55.13
76660;BME280;65579;45.534;6.212;2023-07-29T06:36:49;98053.21;;;20.99;50.99
76660;BME280;65579;45.534;6.212;2023-07-29T06:39:15;98059.96;;;22.26;48.30
76660;BME280;65579;45.534;6.212;2023-07-29T06:41:40;98057.47;;;23.51;45.45
76660;BME280;65579;45.534;6.212;2023-07-29T06:44:06;98053.88;;;24.04;44.94
76660;BME280;65579;45.534;6.212;2023-07-29T06:46:32;98053.24;;;22.10;48.69
76660;BME280;65579;45.534;6.212;2023-07-29T06:48:58;98046.48;;;23.92;44.73
76660;BME280;65579;45.534;6.212;2023-07-29T06:51:24;98041.28;;;24.73;42.72
76660;BME280;65579;45.534;6.212;2023-07-29T06:53:49;98042.74;;;23.13;45.21
76660;BME280;65579;45.534;6.212;2023-07-29T06:56:15;98049.47;;;22.18;47.86
76660;BME280;65579;45.534;6.212;2023-07-29T06:58:41;98051.71;;;22.75;45.51
76660;BME280;65579;45.534;6.212;2023-07-29T07:01:06;98055.33;;;24.75;42.48
76660;BME280;65579;45.534;6.212;2023-07-29T07:03:32;98058.89;;;24.38;42.12
76660;BME280;65579;45.534;6.212;2023-07-29T07:05:57;98052.61;;;24.58;42.01
76660;BME280;65579;45.534;6.212;2023-07-29T07:08:23;98055.70;;;24.08;42.72
76660;BME280;65579;45.534;6.212;2023-07-29T07:10:48;98053.16;;;24.75;42.31
76660;BME280;65579;45.534;6.212;2023-07-29T07:13:14;98046.05;;;25.08;41.23
76660;BME280;65579;45.534;6.212;2023-07-29T07:15:39;98044.79;;;23.75;42.79
76660;BME280;65579;45.534;6.212;2023-07-29T07:18:05;98039.82;;;23.56;43.40
76660;BME280;65579;45.534;6.212;2023-07-29T07:20:31;98035.92;;;24.12;42.03
76660;BME280;65579;45.534;6.212;2023-07-29T07:22:56;98034.87;;;24.99;40.30
76660;BME280;65579;45.534;6.212;2023-07-29T07:25:22;98034.68;;;25.28;40.23
76660;BME280;65579;45.534;6.212;2023-07-29T07:27:48;98038.24;;;25.66;40.18
76660;BME280;65579;45.534;6.212;2023-07-29T07:30:13;98040.52;;;25.28;39.82
76660;BME280;65579;45.534;6.212;2023-07-29T07:32:39;98039.36;;;25.69;38.66
76660;BME280;65579;45.534;6.212;2023-07-29T07:35:04;98035.87;;;25.38;38.99
76660;BME280;65579;45.534;6.212;2023-07-29T07:37:30;98034.80;;;25.25;39.22
76660;BME280;65579;45.534;6.212;2023-07-29T07:39:55;98035.80;;;25.50;40.27
76660;BME280;65579;45.534;6.212;2023-07-29T07:42:20;98040.10;;;26.39;38.01
76660;BME280;65579;45.534;6.212;2023-07-29T07:44:46;98036.57;;;25.55;37.90
76660;BME280;65579;45.534;6.212;2023-07-29T07:47:12;98037.78;;;25.38;39.47
76660;BME280;65579;45.534;6.212;2023-07-29T07:49:37;98041.92;;;25.84;38.04
76660;BME280;65579;45.534;6.212;2023-07-29T07:52:04;98040.89;;;25.47;39.36
76660;BME280;65579;45.534;6.212;2023-07-29T07:54:29;98045.39;;;26.30;38.22
76660;BME280;65579;45.534;6.212;2023-07-29T07:56:54;98043.93;;;25.97;38.02
76660;BME280;65579;45.534;6.212;2023-07-29T07:59:20;98042.93;;;25.42;39.28
76660;BME280;65579;45.534;6.212;2023-07-29T08:01:46;98042.19;;;25.75;39.10
76660;BME280;65579;45.534;6.212;2023-07-29T08:04:11;98040.29;;;25.96;39.22
76660;BME280;65579;45.534;6.212;2023-07-29T08:06:37;98039.68;;;25.86;39.16
76660;BME280;65579;45.534;6.212;2023-07-29T08:09:02;98041.39;;;26.25;38.56
76660;BME280;65579;45.534;6.212;2023-07-29T08:11:28;98042.53;;;24.02;41.92
76660;BME280;65579;45.534;6.212;2023-07-29T08:13:53;98047.31;;;24.05;44.57
76660;BME280;65579;45.534;6.212;2023-07-29T08:16:19;98052.68;;;26.21;39.88
76660;BME280;65579;45.534;6.212;2023-07-29T08:18:45;98054.51;;;26.09;39.50
76660;BME280;65579;45.534;6.212;2023-07-29T08:21:10;98056.83;;;26.52;39.63
76660;BME280;65579;45.534;6.212;2023-07-29T08:23:36;98051.67;;;24.11;41.57
76660;BME280;65579;45.534;6.212;2023-07-29T08:26:04;98053.61;;;25.33;40.76
76660;BME280;65579;45.534;6.212;2023-07-29T08:28:28;98054.64;;;27.27;38.53
76660;BME280;65579;45.534;6.212;2023-07-29T08:30:53;98050.39;;;25.98;38.26
76660;BME280;65579;45.534;6.212;2023-07-29T08:33:18;98043.46;;;27.30;36.58
76660;BME280;65579;45.534;6.212;2023-07-29T08:35:44;98048.76;;;26.17;38.73
76660;BME280;65579;45.534;6.212;2023-07-29T08:38:10;98045.35;;;26.60;38.61
76660;BME280;65579;45.534;6.212;2023-07-29T08:40:36;98048.77;;;26.18;40.11
76660;BME280;65579;45.534;6.212;2023-07-29T08:43:04;98051.91;;;26.51;40.06
76660;BME280;65579;45.534;6.212;2023-07-29T08:45:25;98050.99;;;27.15;38.46
76660;BME280;65579;45.534;6.212;2023-07-29T08:47:55;98048.35;;;27.64;37.83
76660;BME280;65579;45.534;6.212;2023-07-29T08:50:17;98044.39;;;28.07;36.16
76660;BME280;65579;45.534;6.212;2023-07-29T08:52:43;98042.78;;;27.56;35.85
76660;BME280;65579;45.534;6.212;2023-07-29T08:55:08;98044.86;;;27.09;36.63
76660;BME280;65579;45.534;6.212;2023-07-29T08:57:33;98043.87;;;27.10;36.77
76660;BME280;65579;45.534;6.212;2023-07-29T08:59:59;98037.72;;;28.43;34.10
76660;BME280;65579;45.534;6.212;2023-07-29T09:02:24;98039.83;;;29.58;33.39
76660;BME280;65579;45.534;6.212;2023-07-29T09:04:49;98040.08;;;29.66;34.05
76660;BME280;65579;45.534;6.212;2023-07-29T09:07:15;98044.10;;;24.13;42.06
76660;BME280;65579;45.534;6.212;2023-07-29T09:09:40;98045.33;;;23.32;42.98
76660;BME280;65579;45.534;6.212;2023-07-29T09:12:07;98047.36;;;21.95;46.35
76660;BME280;65579;45.534;6.212;2023-07-29T09:14:32;98049.66;;;21.66;45.35
76660;BME280;65579;45.534;6.212;2023-07-29T09:16:57;98052.34;;;20.97;48.32
76660;BME280;65579;45.534;6.212;2023-07-29T09:19:25;98051.45;;;20.85;48.68
76660;BME280;65579;45.534;6.212;2023-07-29T09:21:49;98057.12;;;21.55;49.49
76660;BME280;65579;45.534;6.212;2023-07-29T09:24:16;98059.80;;;21.73;46.10
76660;BME280;65579;45.534;6.212;2023-07-29T09:26:41;98059.18;;;23.17;45.15
76660;BME280;65579;45.534;6.212;2023-07-29T09:29:05;98059.21;;;24.40;41.92
76660;BME280;65579;45.534;6.212;2023-07-29T09:31:30;98062.09;;;22.48;43.43
76660;BME280;65579;45.534;6.212;2023-07-29T09:33:56;98059.54;;;24.14;41.87
76660;BME280;65579;45.534;6.212;2023-07-29T09:36:21;98056.84;;;21.92;45.65
76660;BME280;65579;45.534;6.212;2023-07-29T09:38:46;98053.35;;;22.63;44.95
76660;BME280;65579;45.534;6.212;2023-07-29T09:41:12;98046.64;;;23.51;44.13
76660;BME280;65579;45.534;6.212;2023-07-29T09:43:37;98045.99;;;24.18;44.54
76660;BME280;65579;45.534;6.212;2023-07-29T09:46:04;98042.30;;;23.97;43.14
76660;BME280;65579;45.534;6.212;2023-07-29T09:48:28;98042.23;;;24.67;42.08
76660;BME280;65579;45.534;6.212;2023-07-29T09:50:54;98046.34;;;24.43;43.06
76660;BME280;65579;45.534;6.212;2023-07-29T09:53:19;98044.59;;;25.15;40.31
76660;BME280;65579;45.534;6.212;2023-07-29T09:55:46;98044.92;;;24.53;38.98
76660;BME280;65579;45.534;6.212;2023-07-29T09:58:10;98044.28;;;23.28;41.70
76660;BME280;65579;45.534;6.212;2023-07-29T10:00:36;98040.82;;;25.09;40.09
76660;BME280;65579;45.534;6.212;2023-07-29T10:03:01;98037.42;;;24.70;38.54
76660;BME280;65579;45.534;6.212;2023-07-29T10:05:28;98043.76;;;24.70;40.81
76660;BME280;65579;45.534;6.212;2023-07-29T10:07:54;98047.92;;;26.46;36.71
76660;BME280;65579;45.534;6.212;2023-07-29T10:10:18;98044.10;;;25.66;38.62
76660;BME280;65579;45.534;6.212;2023-07-29T10:12:44;98041.78;;;26.41;39.28
76660;BME280;65579;45.534;6.212;2023-07-29T10:15:10;98042.35;;;25.36;39.31
76660;BME280;65579;45.534;6.212;2023-07-29T10:17:36;98038.43;;;24.90;38.28
76660;BME280;65579;45.534;6.212;2023-07-29T10:20:00;98034.87;;;26.44;38.13
76660;BME280;65579;45.534;6.212;2023-07-29T10:22:29;98029.63;;;24.68;40.26
76660;BME280;65579;45.534;6.212;2023-07-29T10:24:53;98028.79;;;24.40;41.18
76660;BME280;65579;45.534;6.212;2023-07-29T10:27:18;98030.22;;;24.31;42.00
76660;BME280;65579;45.534;6.212;2023-07-29T10:29:44;98033.28;;;22.75;45.41
76660;BME280;65579;45.534;6.212;2023-07-29T10:32:11;98034.57;;;23.11;44.66
76660;BME280;65579;45.534;6.212;2023-07-29T10:34:33;98034.23;;;22.87;45.10
76660;BME280;65579;45.534;6.212;2023-07-29T10:36:59;98031.10;;;24.86;42.89
76660;BME280;65579;45.534;6.212;2023-07-29T10:39:25;98033.12;;;24.82;41.89
76660;BME280;65579;45.534;6.212;2023-07-29T10:41:55;98035.53;;;23.04;44.85
76660;BME280;65579;45.534;6.212;2023-07-29T10:46:41;98033.64;;;23.03;46.20
76660;BME280;65579;45.534;6.212;2023-07-29T10:49:06;98032.76;;;23.52;46.46
76660;BME280;65579;45.534;6.212;2023-07-29T10:51:35;98029.70;;;24.22;44.83
76660;BME280;65579;45.534;6.212;2023-07-29T10:53:59;98030.45;;;23.92;45.51
76660;BME280;65579;45.534;6.212;2023-07-29T10:56:29;98026.42;;;23.64;45.16
76660;BME280;65579;45.534;6.212;2023-07-29T10:58:48;98028.79;;;23.57;47.41
76660;BME280;65579;45.534;6.212;2023-07-29T11:03:39;98035.05;;;21.76;49.08
76660;BME280;65579;45.534;6.212;2023-07-29T11:06:06;98040.03;;;21.92;49.82
76660;BME280;65579;45.534;6.212;2023-07-29T11:08:31;98034.27;;;23.29;48.32
76660;BME280;65579;45.534;6.212;2023-07-29T11:11:05;98037.76;;;24.10;47.89
76660;BME280;65579;45.534;6.212;2023-07-29T11:13:22;98036.27;;;24.22;45.81
76660;BME280;65579;45.534;6.212;2023-07-29T11:15:50;98029.12;;;24.48;45.59
76660;BME280;65579;45.534;6.212;2023-07-29T11:18:14;98024.06;;;24.33;44.66
76660;BME280;65579;45.534;6.212;2023-07-29T11:20:38;98019.88;;;24.59;45.94
76660;BME280;65579;45.534;6.212;2023-07-29T11:23:04;98020.71;;;23.70;47.17
76660;BME280;65579;45.534;6.212;2023-07-29T11:25:31;98014.97;;;23.18;45.48
76660;BME280;65579;45.534;6.212;2023-07-29T11:27:57;98010.67;;;23.73;44.06
76660;BME280;65579;45.534;6.212;2023-07-29T11:30:21;98007.12;;;24.13;45.51
76660;BME280;65579;45.534;6.212;2023-07-29T11:32:46;98007.47;;;23.31;45.50
76660;BME280;65579;45.534;6.212;2023-07-29T11:35:14;98008.71;;;23.06;45.83
76660;BME280;65579;45.534;6.212;2023-07-29T11:37:37;98008.84;;;23.46;43.78
76660;BME280;65579;45.534;6.212;2023-07-29T11:40:03;98002.57;;;23.61;44.68
76660;BME280;65579;45.534;6.212;2023-07-29T11:42:33;98000.92;;;24.04;43.72
76660;BME280;65579;45.534;6.212;2023-07-29T11:44:53;98001.07;;;23.32;44.14
76660;BME280;65579;45.534;6.212;2023-07-29T11:47:19;98001.09;;;22.62;44.75
76660;BME280;65579;45.534;6.212;2023-07-29T11:49:45;97994.56;;;23.77;46.11
76660;BME280;65579;45.534;6.212;2023-07-29T11:52:12;97989.25;;;23.96;43.00
76660;BME280;65579;45.534;6.212;2023-07-29T11:54:35;97990.47;;;24.31;42.01
76660;BME280;65579;45.534;6.212;2023-07-29T11:57:01;97992.59;;;24.44;42.22
76660;BME280;65579;45.534;6.212;2023-07-29T11:59:27;97992.18;;;25.23;39.00
76660;BME280;65579;45.534;6.212;2023-07-29T12:01:52;97992.20;;;23.70;42.34
76660;BME280;65579;45.534;6.212;2023-07-29T12:04:17;97995.93;;;24.85;41.81
76660;BME280;65579;45.534;6.212;2023-07-29T12:06:43;97998.99;;;25.51;40.66
76660;BME280;65579;45.534;6.212;2023-07-29T12:09:08;97999.35;;;27.44;38.09
76660;BME280;65579;45.534;6.212;2023-07-29T12:11:34;98000.76;;;27.96;35.54
76660;BME280;65579;45.534;6.212;2023-07-29T12:14:00;97993.91;;;29.13;34.77
76660;BME280;65579;45.534;6.212;2023-07-29T12:16:25;97993.06;;;26.21;38.15
76660;BME280;65579;45.534;6.212;2023-07-29T12:18:51;97997.20;;;25.40;39.15
76660;BME280;65579;45.534;6.212;2023-07-29T12:21:17;97988.38;;;28.48;36.06
76660;BME280;65579;45.534;6.212;2023-07-29T12:23:42;97985.58;;;29.60;33.83
76660;BME280;65579;45.534;6.212;2023-07-29T12:26:08;97986.17;;;29.82;33.45
76660;BME280;65579;45.534;6.212;2023-07-29T12:28:33;97982.91;;;30.83;32.68
76660;BME280;65579;45.534;6.212;2023-07-29T12:30:59;97983.73;;;30.79;33.73
76660;BME280;65579;45.534;6.212;2023-07-29T12:33:30;97987.90;;;31.01;32.73
76660;BME280;65579;45.534;6.212;2023-07-29T12:35:50;97985.81;;;30.15;33.40
76660;BME280;65579;45.534;6.212;2023-07-29T12:38:20;97990.64;;;30.25;32.61
76660;BME280;65579;45.534;6.212;2023-07-29T12:40:40;97992.36;;;27.52;36.01
76660;BME280;65579;45.534;6.212;2023-07-29T12:43:05;97994.28;;;29.32;35.60
76660;BME280;65579;45.534;6.212;2023-07-29T12:45:36;97993.64;;;30.22;32.56
76660;BME280;65579;45.534;6.212;2023-07-29T12:47:57;97996.10;;;27.53;40.77
76660;BME280;65579;45.534;6.212;2023-07-29T12:50:22;97995.56;;;30.29;33.48
76660;BME280;65579;45.534;6.212;2023-07-29T12:52:48;97994.48;;;28.54;41.76
76660;BME280;65579;45.534;6.212;2023-07-29T12:55:13;97990.31;;;29.75;38.38